createdAt,value
2023-08-26T00:00:11.450Z,81
2023-08-26T00:10:11.364Z,81
2023-08-26T00:20:11.315Z,80
2023-08-26T00:30:11.338Z,81
2023-08-26T00:40:11.320Z,81
2023-08-26T00:50:11.316Z,81
2023-08-26T01:00:11.287Z,80
2023-08-26T01:10:11.267Z,80
2023-08-26T01:20:11.305Z,80
2023-08-26T01:30:11.310Z,80
2023-08-26T01:40:11.199Z,80
2023-08-26T01:50:11.140Z,81
2023-08-26T02:00:11.249Z,81
2023-08-26T02:10:11.239Z,80
2023-08-26T02:20:11.235Z,80
2023-08-26T02:30:11.271Z,81
2023-08-26T02:40:11.186Z,81
2023-08-26T02:50:11.322Z,81
2023-08-26T03:00:11.136Z,81
2023-08-26T03:10:11.172Z,81
2023-08-26T03:20:11.256Z,81
2023-08-26T03:30:11.172Z,81
2023-08-26T03:40:11.415Z,80
2023-08-26T03:50:11.238Z,81
2023-08-26T04:00:11.117Z,81
2023-08-26T04:10:11.204Z,80
2023-08-26T04:20:11.207Z,81
2023-08-26T04:30:11.121Z,81
2023-08-26T04:40:11.102Z,81
2023-08-26T04:50:11.086Z,80
2023-08-26T05:00:11.080Z,80
2023-08-26T05:10:11.061Z,80
2023-08-26T05:20:11.073Z,80
2023-08-26T05:30:11.144Z,82
2023-08-26T05:40:11.034Z,82
2023-08-26T05:50:11.035Z,83
2023-08-26T06:00:10.980Z,86
2023-08-26T06:10:11.023Z,91
2023-08-26T06:20:11.137Z,97
2023-08-26T06:30:11.052Z,99
2023-08-26T06:40:10.960Z,100
2023-08-26T06:50:11.031Z,100
2023-08-26T07:00:10.948Z,100
2023-08-26T07:10:11.042Z,98
2023-08-26T07:20:10.962Z,99
2023-08-26T07:30:10.954Z,100
2023-08-26T07:40:10.896Z,95
2023-08-26T07:50:10.914Z,96
2023-08-26T08:00:10.929Z,84
2023-08-26T08:10:10.874Z,88
2023-08-26T08:20:10.970Z,87
2023-08-26T08:30:10.820Z,85
2023-08-26T08:40:10.924Z,83
2023-08-26T08:50:10.810Z,87
2023-08-26T09:00:10.844Z,90
2023-08-26T09:10:10.663Z,88
2023-08-26T09:20:10.803Z,83
2023-08-26T09:30:10.689Z,72
2023-08-26T09:40:10.629Z,71
2023-08-26T09:50:10.732Z,69
2023-08-26T10:00:10.639Z,65
2023-08-26T10:10:10.613Z,58
2023-08-26T10:20:10.729Z,60
2023-08-26T10:30:10.607Z,58
2023-08-26T10:40:10.557Z,66
2023-08-26T10:50:10.656Z,62
2023-08-26T11:00:10.551Z,60
2023-08-26T11:10:10.681Z,60
2023-08-26T11:20:10.541Z,56
2023-08-26T11:30:10.495Z,55
2023-08-26T11:40:10.613Z,45
2023-08-26T11:50:10.509Z,46
2023-08-26T12:00:10.494Z,46
2023-08-26T12:10:10.476Z,47
2023-08-26T12:20:10.614Z,42
2023-08-26T12:30:10.486Z,42
2023-08-26T12:40:10.493Z,42
2023-08-26T12:50:10.451Z,42
2023-08-26T13:00:10.439Z,42
2023-08-26T13:10:10.569Z,40
2023-08-26T13:20:10.415Z,41
2023-08-26T13:30:10.523Z,39
2023-08-26T13:40:10.534Z,43
2023-08-26T13:50:10.387Z,34
2023-08-26T14:00:10.539Z,32
2023-08-26T14:10:10.620Z,34
2023-08-26T14:20:10.377Z,33
2023-08-26T14:30:10.488Z,37
2023-08-26T14:40:10.539Z,35
2023-08-26T14:50:10.392Z,36
2023-08-26T15:00:10.404Z,35
2023-08-26T15:10:10.443Z,36
2023-08-26T15:20:10.375Z,37
2023-08-26T15:30:10.346Z,38
2023-08-26T15:40:10.374Z,36
2023-08-26T15:50:10.465Z,37
2023-08-26T16:00:10.375Z,37
2023-08-26T16:10:10.319Z,37
2023-08-26T16:20:10.371Z,38
2023-08-26T16:30:10.328Z,40
2023-08-26T16:40:10.490Z,42
2023-08-26T16:50:10.228Z,44
2023-08-26T17:00:10.257Z,46
2023-08-26T17:10:10.452Z,48
2023-08-26T17:20:10.264Z,45
2023-08-26T17:30:10.168Z,44
2023-08-26T17:40:10.125Z,42
2023-08-26T17:50:10.231Z,43
2023-08-26T18:00:10.220Z,45
2023-08-26T18:10:10.222Z,49
2023-08-26T18:20:10.095Z,54
2023-08-26T18:30:10.090Z,58
2023-08-26T18:40:10.302Z,63
2023-08-26T18:50:10.034Z,69
2023-08-26T19:00:10.122Z,69
2023-08-26T19:10:10.143Z,70
2023-08-26T19:20:10.194Z,68
2023-08-26T19:30:09.951Z,66
2023-08-26T19:40:09.953Z,70
2023-08-26T19:50:10.077Z,71
2023-08-26T20:00:10.172Z,72
2023-08-26T20:10:10.190Z,75
2023-08-26T20:20:10.025Z,81
2023-08-26T20:30:10.010Z,86
2023-08-26T20:40:09.961Z,85
2023-08-26T20:50:10.004Z,88
2023-08-26T21:00:10.013Z,94
2023-08-26T21:10:09.994Z,97
2023-08-26T21:20:10.018Z,98
2023-08-26T21:30:10.010Z,100
2023-08-26T21:40:09.950Z,100
2023-08-26T21:50:09.947Z,100
2023-08-26T22:00:09.813Z,100
2023-08-26T22:10:09.808Z,100
2023-08-26T22:20:10.182Z,100
2023-08-26T22:30:09.917Z,100
2023-08-26T22:40:09.894Z,100
2023-08-26T22:50:09.884Z,100
2023-08-26T23:00:09.832Z,100
2023-08-26T23:10:09.706Z,100
2023-08-26T23:20:09.732Z,100
2023-08-26T23:30:09.704Z,100
2023-08-26T23:40:09.726Z,100
2023-08-26T23:50:09.715Z,99
